Impacts METAR Board
IDs:

KMIA - Miami Intl, FL, US

Updated at: 0000 UTC 24 Jun 2018
Potential Impact None Slight Moderate High
Time 23/12Z 23/13Z 23/14Z 23/15Z 23/16Z 23/17Z 23/18Z 23/19Z 23/20Z 23/21Z 23/22Z 23/23Z 24/00Z
Temp83 84 88 86 84 82 84 87 90 89 74 78 79
Dewpt78 78 77 75 75 75 74 74 74 75 74 76 76
Altim30.01 30.02 30.03 30.04 30.05 30.04 30.03 30.02 29.99 29.98 30.01 30.01 30.01
VIS10 10 10 10 9 10 10 10 10 10 10 10 10
CIG-- 250 -- 40 35 90 180 180 250 250 250 250 250
CoverSCTBKNSCTBKNOVCBKNBKNBKNBKNBKNOVCBKNBKN
FltCatVFRVFRVFRVFRVFRVFRVFRVFRVFRVFRVFRVFRVFR
WX------TSTSVCTS------TS-TSRA BR----
WDir270250026090200230026027014000
WSpd3 5 3 5 9 7 4 4 7 10 8 0 0
WGst-- -- -- -- -- -- -- -- -- -- -- -- --
Raw hourly METARs
KMIA 231153Z 27003KT 10SM FEW030 FEW150 SCT250 28/26 A3001 RMK AO2 SLP163 70043 T02830256 10283 20261 53010 PNO $
KMIA 231253Z 25005KT 10SM FEW022 SCT150 BKN250 29/26 A3002 RMK AO2 SLP165 T02890256 $
KMIA 231353Z VRB03KT 10SM FEW028 SCT043 31/25 A3003 RMK AO2 SLP168 T03110250
KMIA 231459Z 26005KT 10SM TS SCT025CB BKN040 BKN150 BKN250 30/24 A3004 RMK AO2 TSB59 OCNL LTGICCG NE-E TS NE-E MOV STNRY MDT CU W T03000239
KMIA 231553Z 09009KT 9SM TS FEW025CB BKN035 BKN140 OVC210 29/24 A3005 RMK AO2 LTG DSNT ALQDS TSB1459E27B33 SLP175 OCNL LTGICCG N-E-S TS N-E-S MOV S CB DSNT SW T02890239
KMIA 231653Z 20007KT 10SM VCTS FEW025CB SCT035 BKN090 BKN180 BKN250 28/24 A3004 RMK AO2 LTG DSNT N AND S AND SW RAB32E33 TSE1554B1555E32B33E45 SLP172 CB SE-SW AND NW MOV STNRY P0003 T02780239
KMIA 231753Z 23004KT 10SM FEW030 FEW110 BKN180 BKN250 29/23 A3003 RMK AO2 RAB07E36 TSB12E42 SLP170 CB DSNT N SE AND W P0000 60003 T02890233 10311 20267 58002
KMIA 231853Z VRB04KT 10SM FEW025 FEW110 BKN180 BKN250 31/23 A3002 RMK AO2 SLP165 T03060233
KMIA 231953Z 26007KT 10SM SCT041 SCT130 BKN250 32/23 A2999 RMK AO2 LTG DSNT N AND S SLP157 CB DSNT NW-N AND S T03220233
KMIA 232053Z 27010KT 10SM TS SCT035CB SCT120 BKN250 32/24 A2998 RMK AO2 LTG DSNT N AND NE TSE39B45 SLP152 FRQ LTGICCG VC N-E-S-SW TS VC N-E-S-SW MOV STNRY T03170239 56018
KMIA 232153Z COR 14008KT 10SM -TSRA BR FEW032CB SCT050 SCT090 OVC250 23/23 A3001 RMK AO2 PK WND 02026/2110 WSHFT 2106 LTG DSNT S AND SW RAB26 SLP162 OCNL LTGICCG VC SE-SW TS VC SE-SW MOV SE P0015 T02330233
KMIA 232253Z 00000KT 10SM FEW030 SCT080 SCT120 BKN250 26/24 A3001 RMK AO2 LTG DSNT S RAE19 TSE19 SLP163 OCNL LTGICCG DSNT S-SW TS MOV S CB DSNT S-SW MOV S P0000 T02560244
KMIA 232353Z 00000KT 10SM FEW030 FEW150 BKN250 26/24 A3001 RMK AO2 SLP163 CB DSNT E 60015 T02610244 10328 20233 50010 $



Page loaded:  00:59 UTC  |   05:59 PM Pacific  |   06:59 PM Mountain  |   07:59 PM Central  |   08:59 PM Eastern

 

ADVISORIES

FORECASTS

FORECASTS

OBSERVATIONS

USER TOOLS

ABOUT US